createdAt,value
2022-12-16T09:24:42.348Z,9.93
2022-12-16T09:27:28.242Z,9.60
2022-12-16T09:30:13.670Z,9.13
2022-12-16T09:35:45.201Z,6.90
2022-12-16T09:38:30.743Z,5.88
2022-12-16T09:41:18.956Z,5.85
2022-12-16T09:44:18.677Z,5.60
2022-12-16T09:47:11.049Z,5.60
2022-12-16T09:50:20.227Z,5.07
2022-12-16T09:53:12.045Z,4.82
2022-12-16T09:55:59.917Z,4.82
2022-12-16T09:59:02.570Z,4.25
2022-12-16T10:01:53.014Z,4.63
2022-12-16T10:04:42.543Z,3.70
2022-12-16T10:07:34.101Z,3.85
2022-12-16T10:10:27.592Z,4.30
2022-12-16T10:13:22.248Z,3.70
2022-12-16T10:16:14.863Z,3.65
2022-12-16T10:19:11.356Z,3.60
2022-12-16T10:22:04.860Z,3.50
2022-12-16T10:25:01.159Z,3.17
2022-12-16T10:27:53.422Z,3.25
2022-12-16T10:30:38.747Z,3.33
2022-12-16T10:36:35.523Z,3.53
2022-12-16T10:39:24.855Z,2.72
2022-12-16T10:42:12.301Z,3.40
2022-12-16T10:45:08.861Z,3.47
2022-12-16T10:47:54.441Z,3.22
2022-12-16T10:50:41.846Z,2.63
2022-12-16T10:53:32.776Z,2.90
2022-12-16T10:56:32.114Z,2.72
2022-12-16T10:59:21.658Z,2.60
2022-12-16T11:02:15.760Z,2.80
2022-12-16T11:05:01.680Z,3.20
2022-12-16T11:07:55.282Z,2.95
2022-12-16T11:10:46.795Z,2.35
2022-12-16T11:13:37.608Z,2.40
2022-12-16T11:16:30.251Z,2.90
2022-12-16T11:19:16.370Z,2.47
2022-12-16T11:22:01.962Z,2.47
2022-12-16T11:24:49.021Z,2.97
2022-12-16T11:27:46.247Z,2.53
2022-12-16T11:30:37.381Z,2.97
2022-12-16T11:33:30.896Z,3.42
2022-12-16T11:36:24.355Z,2.90
2022-12-16T11:39:11.373Z,2.80
2022-12-16T11:42:01.425Z,3.25
2022-12-16T11:44:52.929Z,3.22
2022-12-16T11:47:46.314Z,2.95
2022-12-16T11:50:35.781Z,3.35
2022-12-16T11:53:25.182Z,3.35
2022-12-16T11:56:16.284Z,3.70
2022-12-16T11:59:06.543Z,3.88
2022-12-16T12:01:56.753Z,3.75
2022-12-16T12:04:53.622Z,3.67
2022-12-16T12:07:45.666Z,3.83
2022-12-16T12:10:49.883Z,3.33
2022-12-16T12:13:56.104Z,3.78
2022-12-16T12:16:54.028Z,3.90
2022-12-16T12:19:46.959Z,3.97
2022-12-16T12:22:45.405Z,4.10
2022-12-16T12:25:36.695Z,3.38
2022-12-16T12:28:33.111Z,3.53
2022-12-16T12:31:25.986Z,4.32
2022-12-16T12:34:23.997Z,3.95
2022-12-16T12:37:15.684Z,3.85
2022-12-16T12:40:05.027Z,4.13
2022-12-16T12:42:57.012Z,4.20
2022-12-16T12:46:14.545Z,3.97
2022-12-16T12:49:05.442Z,4.40
2022-12-16T12:52:02.512Z,4.05
2022-12-16T12:54:53.906Z,4.18
2022-12-16T12:57:44.085Z,4.50
2022-12-16T13:00:36.927Z,4.00
2022-12-16T13:03:28.438Z,4.65
2022-12-16T13:06:14.428Z,4.68
2022-12-16T13:09:14.333Z,4.32
2022-12-16T13:12:40.689Z,4.82
2022-12-16T13:15:26.955Z,4.15
2022-12-16T13:18:37.683Z,4.32
2022-12-16T13:21:46.679Z,4.47
2022-12-16T13:25:20.820Z,4.22
2022-12-16T13:28:14.078Z,4.70
2022-12-16T13:31:20.099Z,4.50
2022-12-16T13:34:10.175Z,4.85
2022-12-16T13:36:55.669Z,4.40
2022-12-16T13:39:45.367Z,5.20
2022-12-16T13:43:07.790Z,4.95
2022-12-16T13:45:58.799Z,5.63
2022-12-16T13:48:54.086Z,6.47
2022-12-16T13:52:24.805Z,7.07
2022-12-16T13:55:35.064Z,8.93
2022-12-16T13:58:46.107Z,9.20
2022-12-16T14:01:35.196Z,10.27
2022-12-16T14:04:21.036Z,9.18
2022-12-16T14:07:08.228Z,12.07
2022-12-16T14:09:55.560Z,14.23
2022-12-16T14:13:13.471Z,14.10
2022-12-16T14:16:14.999Z,14.07
2022-12-16T14:19:10.452Z,13.48
2022-12-16T14:22:03.031Z,12.38
2022-12-16T14:24:48.649Z,12.63
2022-12-16T14:27:37.621Z,12.20
2022-12-16T14:30:35.527Z,11.65
2022-12-16T14:33:35.346Z,11.45
2022-12-16T14:36:20.889Z,10.68
2022-12-16T14:39:07.406Z,10.80
2022-12-16T14:41:52.951Z,9.05
2022-12-16T14:44:41.002Z,9.02
2022-12-16T14:47:36.216Z,8.20
2022-12-16T14:50:22.733Z,8.63
2022-12-16T14:53:08.184Z,7.70
2022-12-16T14:55:54.318Z,8.02
2022-12-16T14:58:47.088Z,6.82
2022-12-16T15:01:37.378Z,6.93
2022-12-16T15:04:43.647Z,7.47
2022-12-16T15:07:34.640Z,6.80
2022-12-16T15:10:21.027Z,6.88
2022-12-16T15:13:07.911Z,8.88
2022-12-16T15:16:00.267Z,8.90
2022-12-16T15:18:50.761Z,9.15
2022-12-16T15:21:37.431Z,9.27
2022-12-16T15:24:27.527Z,9.43
2022-12-16T15:27:41.045Z,9.38
2022-12-16T15:30:57.759Z,8.52
2022-12-16T15:33:44.167Z,8.50
2022-12-16T15:36:44.903Z,8.52
2022-12-16T15:39:40.233Z,8.77
2022-12-16T15:42:38.398Z,8.93
2022-12-16T15:45:34.324Z,7.53
2022-12-16T15:48:31.415Z,8.23
2022-12-16T15:51:16.946Z,7.57
2022-12-16T15:54:09.128Z,7.40
2022-12-16T15:57:02.198Z,7.78
2022-12-16T15:59:50.654Z,7.57
2022-12-16T16:02:39.163Z,7.50
2022-12-16T16:05:30.886Z,7.28
2022-12-16T16:08:16.419Z,7.45
2022-12-16T16:11:03.489Z,7.25
2022-12-16T16:13:48.712Z,7.53
2022-12-16T16:16:35.168Z,7.28
2022-12-16T16:19:20.522Z,8.07
2022-12-16T16:24:51.216Z,7.78
2022-12-16T16:27:38.631Z,7.47
2022-12-16T16:30:25.546Z,7.78
2022-12-16T16:33:11.086Z,7.25
2022-12-16T16:35:56.420Z,7.15
2022-12-16T16:41:33.064Z,7.85
2022-12-16T16:44:20.275Z,7.03
2022-12-16T16:47:05.889Z,7.32
2022-12-16T16:49:53.449Z,6.85
2022-12-16T16:52:41.375Z,7.85
2022-12-16T16:55:33.586Z,5.95
2022-12-16T16:58:19.067Z,5.85
2022-12-16T17:01:06.012Z,6.28
2022-12-16T17:03:51.650Z,6.05
2022-12-16T17:06:37.142Z,5.97
2022-12-16T17:09:22.452Z,4.63
2022-12-16T17:14:53.072Z,5.05
2022-12-16T17:17:39.499Z,4.78
2022-12-16T17:20:26.047Z,4.13
2022-12-16T17:23:11.639Z,4.25
2022-12-16T17:25:57.016Z,3.72
2022-12-16T17:31:29.340Z,3.88
2022-12-16T17:34:16.150Z,3.53
2022-12-16T17:37:01.855Z,3.67
2022-12-16T17:39:47.428Z,3.00
2022-12-16T17:42:32.792Z,3.45
2022-12-16T17:48:03.429Z,2.88
2022-12-16T17:50:50.190Z,2.90
2022-12-16T17:53:35.999Z,3.15
2022-12-16T17:56:22.541Z,2.67
2022-12-16T17:59:09.825Z,3.30
2022-12-16T18:01:56.753Z,2.75
2022-12-16T18:04:42.287Z,3.08
2022-12-16T18:10:14.118Z,2.53
2022-12-16T18:13:00.079Z,2.55
2022-12-16T18:15:45.604Z,2.47
2022-12-16T18:18:31.431Z,2.60
2022-12-16T18:21:27.317Z,2.33
2022-12-16T18:24:19.347Z,2.08
2022-12-16T18:27:04.892Z,2.78
2022-12-16T18:29:50.451Z,2.38
2022-12-16T18:32:35.972Z,2.60
2022-12-16T18:35:21.497Z,2.70
2022-12-16T18:38:06.809Z,2.85
2022-12-16T18:43:39.273Z,2.15
2022-12-16T18:46:27.136Z,2.40
2022-12-16T18:49:12.670Z,2.08
2022-12-16T18:51:58.155Z,2.10
2022-12-16T18:54:43.512Z,2.15
2022-12-16T19:03:00.388Z,2.40
2022-12-16T19:05:45.701Z,3.17
2022-12-16T19:08:31.074Z,2.28
2022-12-16T19:11:16.091Z,2.80
2022-12-16T19:14:02.588Z,2.55
2022-12-16T19:16:48.072Z,2.45
2022-12-16T19:19:33.730Z,2.33
2022-12-16T19:22:19.171Z,1.88
2022-12-16T19:25:05.361Z,1.90
2022-12-16T19:27:50.850Z,2.08
2022-12-16T19:30:37.320Z,1.90
2022-12-16T19:33:22.791Z,2.03
2022-12-16T19:36:08.219Z,1.55
2022-12-16T19:38:56.429Z,1.95
2022-12-16T19:41:41.654Z,1.88
2022-12-16T19:44:27.449Z,1.52
2022-12-16T19:47:16.870Z,1.70
2022-12-16T19:50:02.557Z,1.73
2022-12-16T19:52:48.051Z,1.70
2022-12-16T19:55:33.484Z,1.73
2022-12-16T19:58:18.928Z,1.70
2022-12-16T20:03:47.987Z,1.55
2022-12-16T20:06:33.826Z,1.95
2022-12-16T20:09:19.532Z,1.85
2022-12-16T20:12:05.110Z,1.38
2022-12-16T20:14:50.617Z,2.33
2022-12-16T20:17:37.201Z,1.67
2022-12-16T20:20:30.091Z,1.98
2022-12-16T20:23:29.979Z,1.55
2022-12-16T20:26:17.166Z,1.40
2022-12-16T20:29:02.999Z,1.65
2022-12-16T20:31:49.372Z,2.00
2022-12-16T20:34:34.866Z,2.38
2022-12-16T20:37:22.017Z,1.83
2022-12-16T20:40:07.482Z,1.60
2022-12-16T20:42:53.517Z,1.92
2022-12-16T20:45:39.326Z,2.30
2022-12-16T20:48:25.280Z,1.90
2022-12-16T20:51:14.165Z,1.83
2022-12-16T20:54:00.710Z,2.10
2022-12-16T20:56:46.072Z,1.88
2022-12-16T21:05:22.886Z,2.17
2022-12-16T21:08:08.435Z,1.80
2022-12-16T21:10:56.436Z,2.42
2022-12-16T21:13:41.694Z,2.47
2022-12-16T21:16:27.231Z,2.38
2022-12-16T21:19:12.755Z,2.10
2022-12-16T21:21:58.328Z,2.47
2022-12-16T21:24:43.835Z,2.50
2022-12-16T21:27:27.013Z,2.90
2022-12-16T21:30:12.438Z,2.28
2022-12-16T21:32:57.891Z,2.80
2022-12-16T21:38:29.228Z,2.80
2022-12-16T21:41:14.840Z,2.50
2022-12-16T21:44:01.415Z,2.55
2022-12-16T21:46:46.974Z,2.63
2022-12-16T21:49:32.549Z,2.72
2022-12-16T21:52:18.126Z,2.25
2022-12-16T21:55:03.354Z,2.40
2022-12-16T21:57:48.835Z,3.05
2022-12-16T22:00:35.905Z,3.40
2022-12-16T22:03:21.332Z,3.20
2022-12-16T22:06:06.716Z,2.95
2022-12-16T22:11:37.330Z,3.53
2022-12-16T22:14:28.355Z,2.70
2022-12-16T22:17:15.188Z,3.83
2022-12-16T22:20:00.789Z,3.30
2022-12-16T22:22:46.180Z,3.13
2022-12-16T22:28:16.680Z,3.25
2022-12-16T22:31:02.303Z,3.65
2022-12-16T22:33:49.676Z,3.50
2022-12-16T22:36:35.154Z,3.28
2022-12-16T22:39:26.024Z,3.40
2022-12-16T22:42:11.395Z,3.13
